Shafter, California
Current Conditions -  °F | °C
As of 6:41 PM on Saturday 20 Dec 2014 (Local Time) from KBFL Reporting Station
Overcast Overcast  
Wind Chill: 58°   Ceiling: 2800
Heat Index: 58°   Visibility: 10mi
Dew Point: 53°   Wind: 0mph
Humidity: 84%   Direction: NA
Pressure: 30.22"   Gusts: NA
Location:  35.5°N, 119.27°W
Report Text: KBFL 210241Z 00000KT 10SM OVC028 14/12 A3022 RMK AO2 RAB0155E05 P0000 T01440117
Loading
Personal Weather Stations






























Interactive Weather Map New forecast layout! Learn more

10-Day Weather Forecast

Advertisements
Track Severe Weather on mobile